createdAt,value
2024-01-25T00:01:21.109Z,8.66
2024-01-25T00:03:49.802Z,8.67
2024-01-25T00:06:18.518Z,8.66
2024-01-25T00:08:47.058Z,8.66
2024-01-25T00:11:18.489Z,8.65
2024-01-25T00:13:47.022Z,8.65
2024-01-25T00:16:15.572Z,8.63
2024-01-25T00:18:45.786Z,8.65
2024-01-25T00:21:14.265Z,8.64
2024-01-25T00:23:42.772Z,8.59
2024-01-25T00:26:11.203Z,8.63
2024-01-25T00:28:39.614Z,8.60
2024-01-25T00:31:08.058Z,8.59
2024-01-25T00:33:36.625Z,8.52
2024-01-25T00:36:08.544Z,8.50
2024-01-25T00:38:37.729Z,8.48
2024-01-25T00:41:11.359Z,8.49
2024-01-25T00:43:44.275Z,8.45
2024-01-25T00:46:13.594Z,8.39
2024-01-25T00:48:44.178Z,8.35
2024-01-25T00:51:22.351Z,8.29
2024-01-25T00:53:51.561Z,8.29
2024-01-25T00:56:21.096Z,8.29
2024-01-25T00:58:50.800Z,8.28
2024-01-25T01:01:24.567Z,8.20
2024-01-25T01:03:54.956Z,8.15
2024-01-25T01:06:26.385Z,7.98
2024-01-25T01:08:55.629Z,7.91
2024-01-25T01:11:25.689Z,7.82
2024-01-25T01:13:57.646Z,7.74
2024-01-25T01:16:26.178Z,7.76
2024-01-25T01:18:54.895Z,7.62
2024-01-25T01:21:24.870Z,7.55
2024-01-25T01:23:53.313Z,7.43
2024-01-25T01:26:24.084Z,7.42
2024-01-25T01:28:52.580Z,7.33
2024-01-25T01:31:21.141Z,7.31
2024-01-25T01:33:49.993Z,7.31
2024-01-25T01:36:18.962Z,7.04
2024-01-25T01:38:48.891Z,7.04
2024-01-25T01:41:17.604Z,7.06
2024-01-25T01:43:46.221Z,6.99
2024-01-25T01:46:33.716Z,6.79
2024-01-25T01:49:03.242Z,6.82
2024-01-25T01:51:33.641Z,6.84
2024-01-25T01:54:05.373Z,6.87
2024-01-25T01:56:34.567Z,6.80
2024-01-25T01:59:04.439Z,6.79
2024-01-25T02:01:34.387Z,6.66
2024-01-25T02:04:03.399Z,6.67
2024-01-25T02:06:32.394Z,6.66
2024-01-25T02:09:02.679Z,6.64
2024-01-25T02:11:31.809Z,6.58
2024-01-25T02:14:00.387Z,6.59
2024-01-25T02:16:29.354Z,6.64
2024-01-25T02:18:59.282Z,6.68
2024-01-25T02:21:28.141Z,6.70
2024-01-25T02:23:58.882Z,6.60
2024-01-25T02:26:27.553Z,6.64
2024-01-25T02:28:56.232Z,6.66
2024-01-25T02:31:24.736Z,6.67
2024-01-25T02:33:53.522Z,6.56
2024-01-25T02:36:25.137Z,6.48
2024-01-25T02:38:53.669Z,6.40
2024-01-25T02:41:23.538Z,6.36
2024-01-25T02:43:52.056Z,6.32
2024-01-25T02:46:21.234Z,6.25
2024-01-25T02:48:49.900Z,6.25
2024-01-25T02:51:18.451Z,6.28
2024-01-25T02:53:46.874Z,6.30
2024-01-25T02:56:15.337Z,6.31
2024-01-25T02:58:45.159Z,6.27
2024-01-25T03:01:13.636Z,6.13
2024-01-25T03:03:42.633Z,6.04
2024-01-25T03:06:11.365Z,6.11
2024-01-25T03:08:39.919Z,6.01
2024-01-25T03:11:08.522Z,6.07
2024-01-25T03:13:37.457Z,6.13
2024-01-25T03:16:08.716Z,6.06
2024-01-25T03:18:37.599Z,6.10
2024-01-25T03:21:06.682Z,6.12
2024-01-25T03:23:35.260Z,6.12
2024-01-25T03:26:04.910Z,6.07
2024-01-25T03:28:33.886Z,6.03
2024-01-25T03:31:02.531Z,6.07
2024-01-25T03:33:33.962Z,6.06
2024-01-25T03:36:04.917Z,6.15
2024-01-25T03:38:33.777Z,6.19
2024-01-25T03:41:02.385Z,6.17
2024-01-25T03:43:39.015Z,6.12
2024-01-25T03:46:11.741Z,6.03
2024-01-25T03:48:42.012Z,6.08
2024-01-25T03:51:10.564Z,6.11
2024-01-25T03:53:39.156Z,6.10
2024-01-25T03:56:14.433Z,6.01
2024-01-25T03:58:43.006Z,6.03
2024-01-25T04:01:11.754Z,6.03
2024-01-25T04:03:42.583Z,5.96
2024-01-25T04:06:11.380Z,5.95
2024-01-25T04:08:40.108Z,5.97
2024-01-25T04:11:10.179Z,5.93
2024-01-25T04:13:39.093Z,5.90
2024-01-25T04:16:08.853Z,5.71
2024-01-25T04:18:37.672Z,5.76
2024-01-25T04:21:07.845Z,5.83
2024-01-25T04:23:36.999Z,5.89
2024-01-25T04:26:05.717Z,5.94
2024-01-25T04:28:34.280Z,5.97
2024-01-25T04:31:04.293Z,6.02
2024-01-25T04:33:33.303Z,6.06
2024-01-25T04:36:02.033Z,6.04
2024-01-25T04:38:32.195Z,6.05
2024-01-25T04:41:01.045Z,6.08
2024-01-25T04:43:29.557Z,6.07
2024-01-25T04:45:58.100Z,6.10
2024-01-25T04:48:26.783Z,6.11
2024-01-25T04:50:55.307Z,6.10
2024-01-25T04:53:23.873Z,6.15
2024-01-25T04:55:55.656Z,6.17
2024-01-25T04:58:24.523Z,6.15
2024-01-25T05:00:54.100Z,6.15
2024-01-25T05:03:22.865Z,6.16
2024-01-25T05:05:51.497Z,6.17
2024-01-25T05:08:20.036Z,6.19
2024-01-25T05:10:48.552Z,6.21
2024-01-25T05:13:18.614Z,6.23
2024-01-25T05:15:47.263Z,6.23
2024-01-25T05:18:15.891Z,6.23
2024-01-25T05:20:44.461Z,6.26
2024-01-25T05:23:13.194Z,6.30
2024-01-25T05:25:41.754Z,6.32
2024-01-25T05:28:10.380Z,6.29
2024-01-25T05:30:40.730Z,6.32
2024-01-25T05:33:09.534Z,6.33
2024-01-25T05:35:38.380Z,6.33
2024-01-25T05:38:08.388Z,6.25
2024-01-25T05:40:37.981Z,6.23
2024-01-25T05:43:06.998Z,6.24
2024-01-25T05:45:35.705Z,6.25
2024-01-25T05:48:06.833Z,6.28
2024-01-25T05:50:35.690Z,6.19
2024-01-25T05:53:04.269Z,6.24
2024-01-25T05:55:33.231Z,6.21
2024-01-25T05:58:01.894Z,6.19
2024-01-25T06:00:30.747Z,6.09
2024-01-25T06:02:59.513Z,6.01
2024-01-25T06:05:29.878Z,6.01
2024-01-25T06:07:58.879Z,6.02
2024-01-25T06:10:27.773Z,5.96
2024-01-25T06:12:56.466Z,5.99
2024-01-25T06:15:25.094Z,5.97
2024-01-25T06:17:53.785Z,5.96
2024-01-25T06:20:22.686Z,5.92
2024-01-25T06:22:52.783Z,5.98
2024-01-25T06:25:21.408Z,5.96
2024-01-25T06:27:49.964Z,6.02
2024-01-25T06:30:21.055Z,6.01
2024-01-25T06:32:49.558Z,5.93
2024-01-25T06:35:18.502Z,5.86
2024-01-25T06:37:47.308Z,5.82
2024-01-25T06:40:18.320Z,5.73
2024-01-25T06:42:47.125Z,5.71
2024-01-25T06:45:15.941Z,5.66
2024-01-25T06:47:44.425Z,5.70
2024-01-25T06:50:13.374Z,5.66
2024-01-25T06:52:42.042Z,5.63
2024-01-25T06:55:11.791Z,5.64
2024-01-25T06:57:42.035Z,5.61
2024-01-25T07:00:14.091Z,5.58
2024-01-25T07:02:43.435Z,5.59
2024-01-25T07:05:13.138Z,5.59
2024-01-25T07:07:42.207Z,5.52
2024-01-25T07:10:11.436Z,5.52
2024-01-25T07:12:41.460Z,5.45
2024-01-25T07:15:10.750Z,5.33
2024-01-25T07:17:40.187Z,5.30
2024-01-25T07:20:14.678Z,5.28
2024-01-25T07:22:43.699Z,5.25
2024-01-25T07:25:15.450Z,5.24
2024-01-25T07:27:50.743Z,5.30
2024-01-25T07:30:20.244Z,5.30
2024-01-25T07:32:51.926Z,5.33
2024-01-25T07:35:25.239Z,5.33
2024-01-25T07:37:54.087Z,5.34
2024-01-25T07:40:30.135Z,5.39
2024-01-25T07:43:00.580Z,5.35
2024-01-25T07:45:29.247Z,5.30
2024-01-25T07:48:04.535Z,5.24
2024-01-25T07:50:40.862Z,5.20
2024-01-25T07:53:09.569Z,5.11
2024-01-25T07:55:38.070Z,5.07
2024-01-25T07:58:08.530Z,5.03
2024-01-25T08:00:37.398Z,5.06
2024-01-25T08:03:09.465Z,5.10
2024-01-25T08:05:44.941Z,5.06
2024-01-25T08:08:17.136Z,5.00
2024-01-25T08:10:47.283Z,5.00
2024-01-25T08:13:17.413Z,5.02
2024-01-25T08:15:46.265Z,4.95
2024-01-25T08:18:15.183Z,4.94
2024-01-25T08:20:44.014Z,4.97
2024-01-25T08:23:13.149Z,4.95
2024-01-25T08:25:41.839Z,4.90
2024-01-25T08:28:10.557Z,4.88
2024-01-25T08:30:40.598Z,4.93
2024-01-25T08:33:09.180Z,4.94
2024-01-25T08:35:38.191Z,4.92
2024-01-25T08:38:10.156Z,4.91
2024-01-25T08:40:38.879Z,4.89
2024-01-25T08:43:07.529Z,4.91
2024-01-25T08:45:36.125Z,4.89
2024-01-25T08:48:07.487Z,4.89
2024-01-25T08:50:36.827Z,4.93
2024-01-25T08:53:06.328Z,4.90
2024-01-25T08:55:35.085Z,4.91
2024-01-25T08:58:03.730Z,4.96
2024-01-25T09:00:33.628Z,5.02
2024-01-25T09:03:02.226Z,5.01
2024-01-25T09:05:35.464Z,5.02
2024-01-25T09:08:04.361Z,5.04
2024-01-25T09:10:33.149Z,5.06
2024-01-25T09:13:01.787Z,5.10
2024-01-25T09:15:30.416Z,5.13
2024-01-25T09:17:59.039Z,5.14
2024-01-25T09:20:27.852Z,5.15
2024-01-25T09:22:57.757Z,5.16
2024-01-25T09:25:26.467Z,5.17
2024-01-25T09:27:55.161Z,5.17
2024-01-25T09:30:25.654Z,5.26
2024-01-25T09:32:54.163Z,5.27
2024-01-25T09:35:23.390Z,5.26
2024-01-25T09:37:53.771Z,5.32
2024-01-25T09:40:24.843Z,5.33
2024-01-25T09:42:55.806Z,5.34
2024-01-25T09:45:26.693Z,5.43
2024-01-25T09:47:55.871Z,5.51
2024-01-25T09:50:24.893Z,5.55
2024-01-25T09:52:58.896Z,5.64
2024-01-25T09:55:29.998Z,5.69
2024-01-25T09:57:58.925Z,5.77
2024-01-25T10:00:29.583Z,5.87
2024-01-25T10:02:59.493Z,5.94
2024-01-25T10:05:28.413Z,5.99
2024-01-25T10:08:02.535Z,6.04
2024-01-25T10:10:35.760Z,6.12
2024-01-25T10:13:04.677Z,6.17
2024-01-25T10:15:33.463Z,6.23
2024-01-25T10:18:19.435Z,6.29
2024-01-25T10:20:50.989Z,6.34
2024-01-25T10:23:20.094Z,6.39
2024-01-25T10:25:50.205Z,6.46
2024-01-25T10:28:19.026Z,6.48
2024-01-25T10:30:49.807Z,6.57
2024-01-25T10:33:19.171Z,6.70
2024-01-25T10:35:51.498Z,6.86
2024-01-25T10:38:20.670Z,7.06
2024-01-25T10:40:52.537Z,7.12
2024-01-25T10:43:21.439Z,7.13
2024-01-25T10:45:55.245Z,7.11
2024-01-25T10:48:24.416Z,7.15
2024-01-25T10:50:53.065Z,7.20
2024-01-25T10:53:23.392Z,7.31
2024-01-25T10:55:54.304Z,7.36
2024-01-25T10:58:24.237Z,7.41
2024-01-25T11:00:55.139Z,7.48
2024-01-25T11:03:28.331Z,7.51
2024-01-25T11:06:07.577Z,7.57
2024-01-25T11:08:39.029Z,7.65
2024-01-25T11:11:12.316Z,7.75
2024-01-25T11:13:42.923Z,7.84
2024-01-25T11:16:17.251Z,7.96
2024-01-25T11:18:53.620Z,8.00
2024-01-25T11:21:29.853Z,8.05
2024-01-25T11:24:05.728Z,8.08
2024-01-25T11:26:36.745Z,8.10
2024-01-25T11:29:05.257Z,8.14
2024-01-25T11:31:34.101Z,8.19
2024-01-25T11:34:03.767Z,8.21
2024-01-25T11:36:32.411Z,8.22
2024-01-25T11:39:01.488Z,8.24
2024-01-25T11:41:30.088Z,8.29
2024-01-25T11:44:00.134Z,8.33
2024-01-25T11:46:29.061Z,8.37
2024-01-25T11:48:57.886Z,8.41
2024-01-25T11:51:26.670Z,8.43
2024-01-25T11:53:55.316Z,8.53
2024-01-25T11:56:31.128Z,8.61
2024-01-25T11:59:01.761Z,8.66
2024-01-25T12:01:32.615Z,8.71
2024-01-25T12:04:02.857Z,8.73
2024-01-25T12:06:32.616Z,8.75
2024-01-25T12:09:10.827Z,8.79
2024-01-25T12:11:39.500Z,8.82
2024-01-25T12:14:10.601Z,8.85
2024-01-25T12:16:39.833Z,8.89
2024-01-25T12:19:09.393Z,8.91
2024-01-25T12:21:39.017Z,8.95
2024-01-25T12:24:10.602Z,8.99
2024-01-25T12:26:39.472Z,9.02
2024-01-25T12:29:09.488Z,9.07
2024-01-25T12:31:38.199Z,9.11
2024-01-25T12:34:17.955Z,9.15
2024-01-25T12:36:47.011Z,9.17
2024-01-25T12:39:17.465Z,9.21
2024-01-25T12:41:49.132Z,9.25
2024-01-25T12:44:19.558Z,9.28
2024-01-25T12:46:48.438Z,9.31
2024-01-25T12:49:17.255Z,9.34
2024-01-25T12:51:46.275Z,9.39
2024-01-25T12:54:15.212Z,9.40
2024-01-25T12:56:44.000Z,9.41
2024-01-25T12:59:15.797Z,9.45
2024-01-25T13:01:46.091Z,9.49
2024-01-25T13:04:14.936Z,9.49
2024-01-25T13:06:43.530Z,9.53
2024-01-25T13:09:12.187Z,9.53
2024-01-25T13:11:41.080Z,9.57
2024-01-25T13:14:09.620Z,9.58
2024-01-25T13:16:38.042Z,9.63
2024-01-25T13:19:08.143Z,9.63
2024-01-25T13:21:36.649Z,9.69
2024-01-25T13:24:05.274Z,9.69
2024-01-25T13:26:33.838Z,9.67
2024-01-25T13:29:02.275Z,9.66
2024-01-25T13:31:33.799Z,9.61
2024-01-25T13:34:04.541Z,9.64
2024-01-25T13:36:34.638Z,9.70
2024-01-25T13:39:04.800Z,9.75
2024-01-25T13:41:33.478Z,9.79
2024-01-25T13:44:01.972Z,9.81
2024-01-25T13:46:30.431Z,9.85
2024-01-25T13:48:59.022Z,9.90
2024-01-25T13:51:27.597Z,9.87
2024-01-25T13:53:57.436Z,9.89
2024-01-25T13:56:26.997Z,9.90
2024-01-25T13:58:57.373Z,9.92
2024-01-25T14:01:25.974Z,9.87
2024-01-25T14:03:54.639Z,9.86
2024-01-25T14:06:23.408Z,9.88
2024-01-25T14:08:52.589Z,9.95
2024-01-25T14:11:22.993Z,9.98
2024-01-25T14:13:51.492Z,9.99
2024-01-25T14:16:22.164Z,9.98
2024-01-25T14:18:52.801Z,9.96
2024-01-25T14:21:24.655Z,9.90
2024-01-25T14:23:53.426Z,9.90
2024-01-25T14:26:23.432Z,9.88
2024-01-25T14:28:52.144Z,9.93
2024-01-25T14:31:21.019Z,9.91
2024-01-25T14:33:49.731Z,9.95
2024-01-25T14:36:18.403Z,9.92
2024-01-25T14:38:46.987Z,9.86
2024-01-25T14:41:15.526Z,9.79
2024-01-25T14:43:45.854Z,9.78
2024-01-25T14:48:42.972Z,9.74
2024-01-25T14:51:11.670Z,9.74
2024-01-25T14:53:40.193Z,9.70
2024-01-25T14:56:09.996Z,9.71
2024-01-25T14:58:38.536Z,9.71
2024-01-25T15:01:08.727Z,9.77
2024-01-25T15:03:37.496Z,9.73
2024-01-25T15:06:06.482Z,9.73
2024-01-25T15:08:35.019Z,9.78
2024-01-25T15:11:04.035Z,9.75
2024-01-25T15:13:32.671Z,9.77
2024-01-25T15:16:01.603Z,9.73
2024-01-25T15:18:31.791Z,9.74
2024-01-25T15:21:00.628Z,9.70
2024-01-25T15:23:30.656Z,9.70
2024-01-25T15:25:59.512Z,9.71
2024-01-25T15:28:28.100Z,9.71
2024-01-25T15:30:56.711Z,9.61
2024-01-25T15:33:25.354Z,9.58
2024-01-25T15:35:55.691Z,9.60
2024-01-25T15:38:24.250Z,9.52
2024-01-25T15:40:52.947Z,9.51
2024-01-25T15:43:24.386Z,9.52
2024-01-25T15:45:53.159Z,9.46
2024-01-25T15:48:21.839Z,9.45
2024-01-25T15:50:51.353Z,9.40
2024-01-25T15:53:21.288Z,9.39
2024-01-25T15:55:49.781Z,9.40
2024-01-25T15:58:18.249Z,9.40
2024-01-25T16:00:46.938Z,9.43
2024-01-25T16:03:16.653Z,9.44
2024-01-25T16:05:46.776Z,9.41
2024-01-25T16:08:15.410Z,9.40
2024-01-25T16:10:46.095Z,9.35
2024-01-25T16:13:14.698Z,9.31
2024-01-25T16:15:43.532Z,9.28
2024-01-25T16:18:12.626Z,9.25
2024-01-25T16:20:41.247Z,9.26
2024-01-25T16:23:09.705Z,9.28
2024-01-25T16:25:38.302Z,9.22
2024-01-25T16:28:08.464Z,9.23
2024-01-25T16:30:37.200Z,9.19
2024-01-25T16:33:06.188Z,9.14
2024-01-25T16:35:35.463Z,9.10
2024-01-25T16:38:04.049Z,9.12
2024-01-25T16:40:32.617Z,9.08
2024-01-25T16:43:01.195Z,9.10
2024-01-25T16:45:31.227Z,9.08
2024-01-25T16:48:00.094Z,9.09
2024-01-25T16:50:28.814Z,9.10
2024-01-25T16:52:57.846Z,9.05
2024-01-25T16:55:26.613Z,9.06
2024-01-25T16:57:55.229Z,9.10
2024-01-25T17:00:26.157Z,9.11
2024-01-25T17:02:56.478Z,9.14
2024-01-25T17:05:25.091Z,9.15
2024-01-25T17:07:53.648Z,9.06
2024-01-25T17:10:22.880Z,9.01
2024-01-25T17:12:51.943Z,9.00
2024-01-25T17:15:21.539Z,8.98
2024-01-25T17:17:50.171Z,9.03
2024-01-25T17:20:20.250Z,9.00
2024-01-25T17:22:48.676Z,8.97
2024-01-25T17:25:17.773Z,9.00
2024-01-25T17:27:46.289Z,8.95
2024-01-25T17:30:16.264Z,8.95
2024-01-25T17:32:44.826Z,8.95
2024-01-25T17:35:13.374Z,8.96
2024-01-25T17:37:43.188Z,8.97
2024-01-25T17:40:12.444Z,8.95
2024-01-25T17:42:41.104Z,8.99
2024-01-25T17:45:11.162Z,9.02
2024-01-25T17:47:39.918Z,9.03
2024-01-25T17:50:09.494Z,9.01
2024-01-25T17:52:38.038Z,9.01
2024-01-25T17:55:09.110Z,9.02
2024-01-25T17:57:37.790Z,9.02
2024-01-25T18:00:08.377Z,8.98
2024-01-25T18:02:38.906Z,8.98
2024-01-25T18:05:08.231Z,8.95
2024-01-25T18:07:36.958Z,8.95
2024-01-25T18:10:08.196Z,8.98
2024-01-25T18:12:37.722Z,8.99
2024-01-25T18:15:10.117Z,8.98
2024-01-25T18:17:38.831Z,8.98
2024-01-25T18:20:09.373Z,8.99
2024-01-25T18:22:38.758Z,8.96
2024-01-25T18:25:10.682Z,8.96
2024-01-25T18:27:39.722Z,8.96
2024-01-25T18:30:10.448Z,8.95
2024-01-25T18:32:42.117Z,8.92
2024-01-25T18:35:10.830Z,8.90
2024-01-25T18:37:39.450Z,8.91
2024-01-25T18:40:11.256Z,8.96
2024-01-25T18:42:39.831Z,8.98
2024-01-25T18:45:09.353Z,8.97
2024-01-25T18:47:37.947Z,8.99
2024-01-25T18:50:08.009Z,8.99
2024-01-25T18:52:36.598Z,9.00
2024-01-25T18:55:06.379Z,9.01
2024-01-25T18:57:37.811Z,8.99
2024-01-25T19:00:08.983Z,8.99
2024-01-25T19:02:38.416Z,8.97
2024-01-25T19:05:08.851Z,8.98
2024-01-25T19:07:43.439Z,9.01
2024-01-25T19:10:12.186Z,9.03
2024-01-25T19:12:42.369Z,9.03
2024-01-25T19:15:12.250Z,9.04
2024-01-25T19:17:40.871Z,9.03
2024-01-25T19:20:11.109Z,9.01
2024-01-25T19:22:40.054Z,9.02
2024-01-25T19:25:09.379Z,9.04
2024-01-25T19:27:37.930Z,9.01
2024-01-25T19:30:09.978Z,8.97
2024-01-25T19:32:39.021Z,9.00
2024-01-25T19:35:08.198Z,8.93
2024-01-25T19:37:36.707Z,8.93
2024-01-25T19:40:06.549Z,8.94
2024-01-25T19:42:35.185Z,8.92
2024-01-25T19:45:03.809Z,8.91
2024-01-25T19:47:34.243Z,8.91
2024-01-25T19:50:02.885Z,8.94
2024-01-25T19:52:31.842Z,8.94
2024-01-25T19:55:00.543Z,8.96
2024-01-25T19:57:29.921Z,8.95
2024-01-25T19:59:59.207Z,8.97
2024-01-25T20:02:29.795Z,8.99
2024-01-25T20:05:00.489Z,8.99
2024-01-25T20:07:29.894Z,9.00
2024-01-25T20:09:58.510Z,9.00
2024-01-25T20:12:27.126Z,9.02
2024-01-25T20:14:55.906Z,9.05
2024-01-25T20:17:24.589Z,9.07
2024-01-25T20:19:53.369Z,9.08
2024-01-25T20:22:23.614Z,9.08
2024-01-25T20:24:52.149Z,9.08
2024-01-25T20:27:20.958Z,9.09
2024-01-25T20:29:49.629Z,9.07
2024-01-25T20:32:18.295Z,9.06
2024-01-25T20:34:48.301Z,9.07
2024-01-25T20:37:20.274Z,9.10
2024-01-25T20:39:50.372Z,9.12
2024-01-25T20:42:19.274Z,9.15
2024-01-25T20:44:47.771Z,9.15
2024-01-25T20:47:16.262Z,9.15
2024-01-25T20:49:44.886Z,9.14
2024-01-25T20:52:14.040Z,9.12
2024-01-25T20:54:42.554Z,9.17
2024-01-25T20:57:12.589Z,9.17
2024-01-25T20:59:41.225Z,9.16
2024-01-25T21:02:11.097Z,9.17
2024-01-25T21:04:41.878Z,9.19
2024-01-25T21:07:12.079Z,9.21
2024-01-25T21:09:41.607Z,9.19
2024-01-25T21:12:14.201Z,9.19
2024-01-25T21:14:44.699Z,9.21
2024-01-25T21:17:13.159Z,9.20
2024-01-25T21:19:41.757Z,9.17
2024-01-25T21:22:10.238Z,9.17
2024-01-25T21:24:38.817Z,9.16
2024-01-25T21:27:07.686Z,9.16
2024-01-25T21:29:38.767Z,9.19
2024-01-25T21:32:08.291Z,9.20
2024-01-25T21:34:36.804Z,9.20
2024-01-25T21:37:05.903Z,9.17
2024-01-25T21:39:34.445Z,9.18
2024-01-25T21:42:03.498Z,9.11
2024-01-25T21:44:31.994Z,9.08
2024-01-25T21:47:01.929Z,9.09
2024-01-25T21:49:33.452Z,9.07
2024-01-25T21:52:02.987Z,9.07
2024-01-25T21:54:31.662Z,9.08
2024-01-25T21:57:00.268Z,9.07
2024-01-25T21:59:28.988Z,9.05
2024-01-25T22:01:57.665Z,9.07
2024-01-25T22:04:27.608Z,9.07
2024-01-25T22:06:56.436Z,9.07
2024-01-25T22:09:25.917Z,9.09
2024-01-25T22:11:54.891Z,9.10
2024-01-25T22:14:23.291Z,9.08
2024-01-25T22:16:51.787Z,9.09
2024-01-25T22:19:21.437Z,9.07
2024-01-25T22:21:52.272Z,9.04
2024-01-25T22:24:20.812Z,9.03
2024-01-25T22:26:49.299Z,9.03
2024-01-25T22:29:17.764Z,8.98
2024-01-25T22:31:46.388Z,8.98
2024-01-25T22:34:15.305Z,8.96
2024-01-25T22:36:43.862Z,9.00
2024-01-25T22:39:13.975Z,8.99
2024-01-25T22:41:42.457Z,8.96
2024-01-25T22:44:11.033Z,8.95
2024-01-25T22:46:39.583Z,8.94
2024-01-25T22:49:08.296Z,8.88
2024-01-25T22:51:36.788Z,8.89
2024-01-25T22:54:05.857Z,8.86
2024-01-25T22:56:36.047Z,8.83
2024-01-25T22:59:05.863Z,8.81
2024-01-25T23:01:34.567Z,8.79
2024-01-25T23:04:03.283Z,8.81
2024-01-25T23:06:31.873Z,8.82
2024-01-25T23:09:00.748Z,8.76
2024-01-25T23:11:30.626Z,8.78
2024-01-25T23:14:01.364Z,8.68
2024-01-25T23:16:29.918Z,8.69
2024-01-25T23:18:58.838Z,8.71
2024-01-25T23:21:27.547Z,8.73
2024-01-25T23:23:56.060Z,8.73
2024-01-25T23:26:24.471Z,8.71
2024-01-25T23:28:53.319Z,8.76
2024-01-25T23:31:23.366Z,8.75
2024-01-25T23:33:51.855Z,8.69
2024-01-25T23:36:20.921Z,8.68
2024-01-25T23:38:50.373Z,8.69
2024-01-25T23:41:19.916Z,8.68
2024-01-25T23:43:48.563Z,8.65
2024-01-25T23:46:17.413Z,8.66
2024-01-25T23:48:47.966Z,8.65
2024-01-25T23:51:17.399Z,8.61
2024-01-25T23:53:46.073Z,8.61
2024-01-25T23:56:14.590Z,8.54
2024-01-25T23:58:43.233Z,8.51
